Weather at As Salihiyah Airport

Public forecast

Using degrees Celsius for public forecast. Weather courtesy of forecast.io.

Closest aviation weather report (METAR) to As Salihiyah Airport

Closest report is Ismailia Air Base, 15.4 nm (28.6 km) SE.

2024/06/22 08:00 (retrieved 30 minutes ago)

HEIS 220800Z 27005KT CAVOK 33/20 Q1005

Closest aviation forecast (TAF) to As Salihiyah Airport

Closest forecast is Port Said International Airport, 30.8 nm (57.0 km) NNE.

2024/06/22 06:36 (retrieved 2 hours ago)

TAF HEPS 220500Z 2206/2312 33008KT CAVOK TEMPO 2200/2206 23006KT